Time;durP1;ratioP1;P1;durP2;ratioP2;P2;SDS_P1;SDS_P2;PMS_P1;PMS_P2;Temp;Humidity;BMP_temperature;BMP_pressure;BME280_temperature;BME280_humidity;BME280_pressure;Samples;Min_cycle;Max_cycle;Signal;HPM_P1;HPM_P2
2023/09/05 02:37:32;;;;;;;3.23;1.60;;;17.20;1.00;;;;;;6248250;22;20203;-48
2023/09/05 02:40:03;;;;;;;2.80;2.00;;;17.10;1.00;;;;;;6246728;23;20160;-43
2023/09/05 02:42:49;;;;;;;2.50;1.83;;;17.10;1.00;;;;;;6246591;23;20235;-44
2023/09/05 02:45:15;;;;;;;3.73;1.83;;;17.20;1.00;;;;;;6247733;23;20229;-46
2023/09/05 02:47:52;;;;;;;3.67;2.20;;;17.20;1.00;;;;;;6246474;23;20209;-44
2023/09/05 02:50:32;;;;;;;2.83;1.73;;;17.20;1.00;;;;;;6248155;22;20159;-48
2023/09/05 02:53:41;;;;;;;3.03;1.43;;;17.30;1.00;;;;;;6242207;22;20281;-43
2023/09/05 02:56:07;;;;;;;1.90;1.73;;;17.30;1.00;;;;;;6240376;23;20202;-46
2023/09/05 02:58:33;;;;;;;3.40;1.90;;;17.30;1.00;;;;;;6247808;23;20139;-46
2023/09/05 03:01:23;;;;;;;;;;;;;;;;;;;;;
2023/09/05 03:03:49;;;;;;;3.53;2.00;;;17.20;1.00;;;;;;6243628;22;20242;-47
2023/09/05 03:06:16;;;;;;;3.70;2.10;;;17.20;1.00;;;;;;6247690;23;20622;-47
2023/09/05 03:08:44;;;;;;;3.60;2.40;;;17.20;1.00;;;;;;6247703;22;20151;-47
2023/09/05 03:11:41;;;;;;;3.97;2.03;;;17.20;1.00;;;;;;6246166;23;20162;-43
2023/09/05 03:14:49;;;;;;;6.83;1.90;;;17.20;1.00;;;;;;6198407;23;20501;-44
2023/09/05 12:30:32;;;;;;;2.42;1.65;;;29.90;68.70;;;;;;6249460;22;20191;-49
2023/09/05 12:33:14;;;;;;;3.05;1.60;;;30.00;99.90;;;;;;6248923;23;20148;-46
2023/09/05 12:35:41;;;;;;;3.92;1.80;;;30.10;99.90;;;;;;6249763;22;20486;-45
2023/09/05 12:38:12;;;;;;;3.13;1.60;;;30.00;1.00;;;;;;6249644;23;20191;-50
2023/09/05 12:40:39;;;;;;;5.63;1.52;;;30.10;1.00;;;;;;6248497;23;20171;-49
2023/09/05 12:43:08;;;;;;;3.20;1.77;;;30.10;1.00;;;;;;6248290;23;20159;-50
2023/09/05 12:45:34;;;;;;;5.28;1.55;;;30.10;23.10;;;;;;6248896;23;20567;-49
2023/09/05 12:48:00;;;;;;;4.70;1.98;;;30.20;1.00;;;;;;6250526;23;20151;-49
2023/09/05 12:50:32;;;;;;;3.90;1.60;;;30.20;1.00;;;;;;6248557;23;20554;-49
2023/09/05 12:53:06;;;;;;;4.60;1.50;;;30.30;1.00;;;;;;6248361;23;20493;-50
2023/09/05 12:55:41;;;;;;;3.50;1.45;;;30.30;1.00;;;;;;6249853;22;20203;-45
2023/09/05 12:58:48;;;;;;;2.08;1.20;;;30.40;1.00;;;;;;6246327;23;20185;-46
2023/09/05 13:01:23;;;;;;;3.83;1.50;;;30.50;1.00;;;;;;6250668;23;20155;-46
2023/09/05 13:03:50;;;;;;;4.32;1.50;;;30.50;1.00;;;;;;6247186;22;20156;-49
2023/09/05 13:06:17;;;;;;;1.55;1.25;;;30.60;1.00;;;;;;6247603;23;20179;-46
2023/09/05 13:08:43;;;;;;;3.28;1.27;;;30.70;1.00;;;;;;6247371;23;20159;-45
2023/09/05 13:11:08;;;;;;;2.17;1.23;;;30.70;1.00;;;;;;6248377;23;20548;-49
2023/09/05 13:13:35;;;;;;;2.70;1.63;;;30.80;1.00;;;;;;6247843;23;20167;-50
2023/09/05 13:16:01;;;;;;;5.20;1.48;;;30.70;1.00;;;;;;6249208;22;20171;-49
2023/09/05 13:18:26;;;;;;;2.47;1.40;;;30.90;1.00;;;;;;6249442;23;20254;-49
2023/09/05 13:20:53;;;;;;;3.65;1.50;;;30.90;1.00;;;;;;6248705;23;20159;-46
2023/09/05 13:23:19;;;;;;;2.72;1.30;;;30.90;1.00;;;;;;6247867;23;20163;-50
2023/09/05 13:25:46;;;;;;;2.53;1.42;;;30.90;1.00;;;;;;6249061;22;20175;-49
2023/09/05 13:28:11;;;;;;;3.55;1.20;;;31.00;1.00;;;;;;6250377;22;20163;-51
2023/09/05 13:30:39;;;;;;;2.17;1.48;;;31.10;1.00;;;;;;6248968;23;20167;-45
2023/09/05 13:33:04;;;;;;;3.10;1.60;;;31.10;1.00;;;;;;6249305;22;20213;-48
2023/09/05 13:35:31;;;;;;;4.03;1.25;;;31.10;1.00;;;;;;6251870;23;20179;-46
2023/09/05 13:37:57;;;;;;;6.82;1.48;;;31.10;1.00;;;;;;6249151;23;20214;-45
2023/09/05 13:40:23;;;;;;;1.70;1.60;;;31.10;1.00;;;;;;6254340;23;20505;-51
2023/09/05 13:42:48;;;;;;;3.78;1.30;;;31.10;1.00;;;;;;6254531;23;20159;-48
2023/09/05 13:45:15;;;;;;;3.90;1.63;;;31.30;1.00;;;;;;6253271;23;20164;-49
2023/09/05 13:47:42;;;;;;;1.77;1.10;;;31.30;1.00;;;;;;6253269;22;20679;-46
2023/09/05 13:50:09;;;;;;;5.90;1.30;;;31.30;1.00;;;;;;6252497;22;20159;-45
2023/09/05 13:52:34;;;;;;;4.32;1.60;;;31.30;1.00;;;;;;6251144;23;20174;-45
2023/09/05 13:55:00;;;;;;;1.63;1.17;;;31.30;1.00;;;;;;6252552;23;20176;-48
2023/09/05 13:57:26;;;;;;;3.67;1.30;;;31.40;1.00;;;;;;6251551;22;20186;-45
2023/09/05 13:59:51;;;;;;;2.17;1.20;;;31.50;1.00;;;;;;6251987;23;20159;-44
2023/09/05 14:02:17;;;;;;;4.50;1.40;;;31.50;1.00;;;;;;6252906;23;20209;-45
2023/09/05 14:04:43;;;;;;;3.30;1.38;;;31.60;1.00;;;;;;6251482;23;20186;-49
2023/09/05 14:07:11;;;;;;;9.60;1.80;;;31.60;1.00;;;;;;6251311;23;20179;-47
2023/09/05 14:09:36;;;;;;;6.07;1.33;;;31.60;1.00;;;;;;6251247;23;20167;-49
2023/09/05 14:12:02;;;;;;;3.67;1.33;;;31.70;1.00;;;;;;6253827;23;20219;-46
2023/09/05 14:14:28;;;;;;;2.80;1.38;;;31.60;1.00;;;;;;6251571;23;20205;-48
2023/09/05 14:16:55;;;;;;;4.30;1.40;;;31.70;1.00;;;;;;6253507;22;20171;-50
2023/09/05 14:19:22;;;;;;;6.93;1.73;;;31.70;1.00;;;;;;6254612;22;20152;-47
2023/09/05 14:21:48;;;;;;;4.30;1.30;;;31.70;1.00;;;;;;6253601;22;20166;-48
2023/09/05 14:24:13;;;;;;;5.00;1.40;;;31.80;1.00;;;;;;6253807;23;20152;-49
2023/09/05 14:30:05;;;;;;;2.53;1.02;;;31.70;1.00;;;;;;6252508;23;20171;-45
2023/09/05 14:32:30;;;;;;;4.18;1.35;;;31.80;1.00;;;;;;6251963;23;20242;-50
2023/09/05 14:34:56;;;;;;;2.70;1.25;;;31.80;1.00;;;;;;6249866;23;20175;-46
2023/09/05 14:37:23;;;;;;;2.88;0.98;;;31.80;1.00;;;;;;6250875;23;20183;-50
2023/09/05 14:39:52;;;;;;;4.25;1.50;;;31.80;1.00;;;;;;6250539;23;20223;-45
2023/09/05 14:42:18;;;;;;;4.32;1.40;;;31.80;1.00;;;;;;6252523;22;20537;-46
2023/09/05 14:44:44;;;;;;;3.15;1.52;;;31.70;1.00;;;;;;6252598;22;20274;-49
2023/09/05 14:47:11;;;;;;;2.15;1.30;;;31.80;1.00;;;;;;6250196;23;20160;-45
2023/09/05 14:49:37;;;;;;;4.47;1.20;;;31.70;1.00;;;;;;6252379;22;20179;-50
2023/09/05 14:52:04;;;;;;;7.78;1.30;;;31.70;1.00;;;;;;6252278;23;20159;-50
2023/09/05 14:54:30;;;;;;;2.88;1.15;;;31.70;1.00;;;;;;6250910;22;20229;-50
2023/09/05 14:57:20;;;;;;;3.97;1.35;;;31.70;1.00;;;;;;6253082;23;20179;-46
2023/09/05 14:59:45;;;;;;;5.00;1.08;;;31.70;1.00;;;;;;6252297;23;20136;-49
2023/09/05 15:02:11;;;;;;;2.15;1.20;;;31.80;1.00;;;;;;6249474;23;20160;-50
2023/09/05 15:04:37;;;;;;;4.22;1.00;;;31.80;1.00;;;;;;6246396;23;20179;-46
2023/09/05 15:07:05;;;;;;;2.53;1.45;;;31.80;1.00;;;;;;6248443;23;20151;-49
2023/09/05 15:09:32;;;;;;;4.82;1.30;;;31.80;1.00;;;;;;6246633;23;20179;-50
2023/09/05 15:11:58;;;;;;;3.10;1.23;;;31.80;1.00;;;;;;6247733;22;20159;-49
2023/09/05 15:14:23;;;;;;;4.45;1.30;;;31.90;1.00;;;;;;6248302;23;20152;-49
2023/09/05 15:16:49;;;;;;;3.55;1.00;;;32.00;1.00;;;;;;6221374;23;20207;-50
2023/09/05 15:19:15;;;;;;;2.97;1.02;;;32.00;1.00;;;;;;6248792;22;20163;-49
2023/09/05 15:21:42;;;;;;;3.00;1.00;;;32.00;99.90;;;;;;6246618;23;20160;-50
2023/09/05 15:24:10;;;;;;;5.43;1.40;;;31.90;99.90;;;;;;6248524;22;20178;-47
2023/09/05 15:26:36;;;;;;;3.13;1.17;;;31.90;99.90;;;;;;6247259;23;20179;-49
2023/09/05 15:29:03;;;;;;;1.33;1.05;;;31.80;99.90;;;;;;6248419;23;20167;-46
2023/09/05 15:31:29;;;;;;;2.67;1.20;;;31.80;99.90;;;;;;6248905;22;20249;-50
2023/09/05 15:33:55;;;;;;;2.60;1.05;;;31.80;99.90;;;;;;6248138;22;20163;-46
2023/09/05 15:36:20;;;;;;;4.40;1.13;;;31.80;99.90;;;;;;6248245;23;20175;-50
2023/09/05 15:38:46;;;;;;;3.25;1.23;;;31.80;1.00;;;;;;6248412;22;20156;-50
2023/09/05 15:41:12;;;;;;;3.53;1.30;;;31.80;99.90;;;;;;6246910;23;20616;-47
2023/09/05 15:43:37;;;;;;;2.83;1.30;;;31.70;1.00;;;;;;6248859;22;20685;-49
2023/09/05 15:46:03;;;;;;;1.10;1.00;;;31.80;99.90;;;;;;6246834;23;20175;-48
2023/09/05 15:48:29;;;;;;;1.35;1.17;;;31.80;1.00;;;;;;6246512;23;20167;-50
2023/09/05 15:50:55;;;;;;;1.20;1.10;;;31.70;99.90;;;;;;6248289;23;20202;-46
2023/09/05 15:53:22;;;;;;;3.33;1.27;;;31.70;99.90;;;;;;6248975;22;20155;-45
2023/09/05 15:55:50;;;;;;;7.65;1.40;;;31.70;99.90;;;;;;6246800;23;20187;-46
2023/09/05 15:58:16;;;;;;;2.60;1.20;;;31.70;99.90;;;;;;6249375;22;20261;-46
2023/09/05 16:00:42;;;;;;;5.63;1.58;;;31.70;99.90;;;;;;6249003;22;20152;-46
2023/09/05 16:03:07;;;;;;;2.85;1.15;;;31.70;99.90;;;;;;6249841;23;20578;-49
2023/09/05 16:05:33;;;;;;;4.22;1.83;;;31.70;99.90;;;;;;6250486;23;20172;-51
2023/09/05 16:08:06;;;;;;;5.15;1.35;;;31.60;99.90;;;;;;6252279;23;20486;-44
2023/09/05 16:10:32;;;;;;;5.88;1.40;;;31.60;99.90;;;;;;6249070;23;20164;-49
2023/09/05 16:12:58;;;;;;;6.05;1.35;;;31.60;99.90;;;;;;6250546;22;20597;-45
2023/09/05 16:15:23;;;;;;;3.00;1.05;;;31.50;99.90;;;;;;6250262;23;20205;-49
2023/09/05 16:17:49;;;;;;;4.10;1.23;;;31.50;99.90;;;;;;6248810;23;20194;-48
2023/09/05 16:20:16;;;;;;;3.38;1.85;;;31.50;99.90;;;;;;6250575;23;20156;-46
2023/09/05 16:22:43;;;;;;;2.70;1.20;;;31.40;99.90;;;;;;6248321;23;20163;-45
2023/09/05 16:25:10;;;;;;;5.78;1.55;;;31.40;99.90;;;;;;6248612;23;20183;-50
2023/09/05 16:27:35;;;;;;;1.33;1.23;;;31.30;99.90;;;;;;6249141;23;20169;-50
2023/09/05 16:30:08;;;;;;;2.53;1.73;;;31.10;99.90;;;;;;6250360;23;20645;-46
2023/09/05 16:32:34;;;;;;;2.22;1.42;;;31.00;99.90;;;;;;6248620;23;20172;-49
2023/09/05 16:35:01;;;;;;;3.60;1.95;;;30.90;99.90;;;;;;6248169;23;20206;-46
2023/09/05 16:37:27;;;;;;;5.05;1.85;;;30.70;99.90;;;;;;6249800;22;20228;-50
2023/09/05 16:39:53;;;;;;;2.55;1.50;;;30.60;99.90;;;;;;6248517;23;20156;-46
2023/09/05 16:42:19;;;;;;;2.83;1.48;;;30.50;99.90;;;;;;6249088;23;20155;-50
2023/09/05 16:44:44;;;;;;;3.67;2.58;;;30.30;99.90;;;;;;6248820;23;20255;-50
2023/09/05 16:47:10;;;;;;;10.23;2.15;;;30.10;99.90;;;;;;6249614;23;20601;-49
2023/09/05 16:49:37;;;;;;;4.65;1.58;;;29.90;99.90;;;;;;6250679;22;20156;-46
2023/09/05 16:52:04;;;;;;;7.95;1.60;;;29.80;99.90;;;;;;6249216;23;20167;-49
2023/09/05 16:54:31;;;;;;;2.67;1.40;;;29.70;99.90;;;;;;6250621;22;20210;-45
2023/09/05 16:56:57;;;;;;;2.40;1.52;;;29.60;99.90;;;;;;6249359;23;20258;-44
2023/09/05 16:59:24;;;;;;;1.50;1.40;;;29.40;99.90;;;;;;6248840;23;20620;-45
2023/09/05 17:01:54;;;;;;;2.45;1.30;;;29.30;99.90;;;;;;6248442;23;20164;-45
2023/09/05 17:04:20;;;;;;;3.30;1.48;;;29.20;99.90;;;;;;6249589;22;20148;-49
2023/09/05 17:06:46;;;;;;;4.47;1.55;;;29.10;99.90;;;;;;6249772;22;20151;-50
2023/09/05 17:09:12;;;;;;;2.25;1.10;;;28.90;99.90;;;;;;6247718;23;20191;-49
2023/09/05 17:11:38;;;;;;;3.85;1.48;;;28.80;99.90;;;;;;6247881;23;20197;-49
2023/09/05 17:14:08;;;;;;;4.43;1.40;;;28.70;99.90;;;;;;6250556;23;20151;-44
2023/09/05 17:16:33;;;;;;;2.80;1.20;;;28.60;99.90;;;;;;6247963;23;20183;-49
2023/09/05 17:18:59;;;;;;;2.33;1.27;;;28.50;99.90;;;;;;6249646;22;20534;-48
2023/09/05 17:21:39;;;;;;;1.50;1.40;;;28.30;99.90;;;;;;6248049;23;20530;-46
2023/09/05 17:24:05;;;;;;;3.92;1.30;;;28.20;99.90;;;;;;6246951;23;20164;-50
2023/09/05 17:26:38;;;;;;;4.20;1.40;;;28.00;99.90;;;;;;6247376;23;20186;-45
2023/09/05 17:29:04;;;;;;;3.70;1.10;;;27.90;99.90;;;;;;6247508;23;20179;-50
2023/09/05 17:31:29;;;;;;;2.35;1.58;;;27.70;99.90;;;;;;6248836;23;20220;-50
2023/09/05 17:33:55;;;;;;;2.83;1.50;;;27.60;1.00;;;;;;6249448;22;20585;-50
2023/09/05 17:36:21;;;;;;;3.13;1.40;;;27.50;1.00;;;;;;6248680;23;20171;-49
2023/09/05 17:38:55;;;;;;;2.25;1.40;;;27.40;1.00;;;;;;6248770;22;20198;-45
2023/09/05 17:41:26;;;;;;;5.28;1.33;;;27.20;1.00;;;;;;6247543;23;20180;-46
2023/09/05 17:43:51;;;;;;;4.78;1.60;;;27.10;1.00;;;;;;6198088;23;20160;-50
2023/09/05 17:46:17;;;;;;;2.25;1.27;;;27.00;1.00;;;;;;6247090;23;20267;-50
2023/09/05 17:48:43;;;;;;;3.45;1.63;;;26.80;1.00;;;;;;6249246;22;20163;-49
2023/09/05 17:51:11;;;;;;;1.65;1.50;;;26.70;1.00;;;;;;6247171;23;20246;-44
2023/09/05 17:53:37;;;;;;;8.13;1.60;;;26.50;1.00;;;;;;6246615;23;20164;-48
2023/09/05 17:56:03;;;;;;;3.28;1.63;;;26.40;1.00;;;;;;6248601;22;20504;-50
2023/09/05 17:58:28;;;;;;;3.85;1.60;;;26.30;1.00;;;;;;6249316;22;20669;-45
2023/09/05 18:00:54;;;;;;;2.97;1.40;;;26.10;1.00;;;;;;6247220;23;20628;-50
2023/09/05 18:03:22;;;;;;;3.90;1.73;;;26.00;25.50;;;;;;6247036;23;20159;-45
2023/09/05 18:05:50;;;;;;;5.00;1.40;;;25.90;68.40;;;;;;6246977;23;20517;-45
2023/09/05 18:08:16;;;;;;;6.07;1.33;;;25.70;99.90;;;;;;6247437;23;20164;-44
2023/09/05 18:10:44;;;;;;;4.07;2.23;;;25.60;99.90;;;;;;6223909;23;20160;-44
2023/09/05 18:13:11;;;;;;;2.93;1.47;;;25.40;99.90;;;;;;6249007;22;20151;-43
2023/09/05 18:15:37;;;;;;;3.50;1.57;;;25.30;99.90;;;;;;6247741;23;20172;-49
2023/09/05 18:18:09;;;;;;;4.30;1.40;;;25.20;90.00;;;;;;6249084;22;20175;-44
2023/09/05 18:20:40;;;;;;;5.07;1.60;;;25.10;99.90;;;;;;6246085;23;20147;-43
2023/09/05 18:23:13;;;;;;;1.83;1.33;;;25.00;99.90;;;;;;6246862;23;20198;-44
2023/09/05 18:25:38;;;;;;;5.40;1.83;;;24.90;99.90;;;;;;6246947;23;20262;-45
2023/09/05 18:28:04;;;;;;;3.40;1.97;;;24.80;99.90;;;;;;6249354;22;20182;-48
2023/09/05 18:30:30;;;;;;;4.77;1.73;;;24.70;99.90;;;;;;6248330;23;20187;-50
2023/09/05 18:32:56;;;;;;;2.20;1.57;;;24.60;99.90;;;;;;6249040;22;20590;-48
2023/09/05 18:35:31;;;;;;;2.03;1.23;;;24.50;1.00;;;;;;6247036;23;20222;-45
2023/09/05 18:37:59;;;;;;;4.70;1.70;;;24.40;1.00;;;;;;6246623;23;20644;-48
2023/09/05 18:40:25;;;;;;;2.87;1.70;;;24.30;1.00;;;;;;6248246;22;20243;-49
2023/09/05 18:42:50;;;;;;;4.20;1.77;;;24.20;99.90;;;;;;6246686;23;20148;-49
2023/09/05 18:45:16;;;;;;;3.27;1.70;;;24.20;99.90;;;;;;6247628;23;20736;-49
2023/09/05 18:47:44;;;;;;;2.53;1.60;;;24.10;1.00;;;;;;6248550;23;20210;-44
2023/09/05 18:50:10;;;;;;;2.13;1.60;;;24.00;1.00;;;;;;6248775;22;20162;-49
2023/09/05 18:52:35;;;;;;;5.03;1.83;;;23.80;99.90;;;;;;6246978;23;20159;-49
2023/09/05 18:55:01;;;;;;;3.63;1.73;;;23.80;99.90;;;;;;6222078;23;20233;-49
2023/09/05 18:57:27;;;;;;;2.93;1.60;;;23.60;99.90;;;;;;6246471;23;20241;-43
2023/09/05 18:59:53;;;;;;;2.47;1.60;;;23.60;1.00;;;;;;6246504;23;20156;-45
2023/09/05 19:02:25;;;;;;;3.70;2.00;;;23.60;1.00;;;;;;6245985;23;20155;-49
2023/09/05 19:04:50;;;;;;;2.60;2.13;;;23.50;81.90;;;;;;6248107;22;20171;-44
2023/09/05 19:07:16;;;;;;;3.77;1.70;;;23.60;99.90;;;;;;6247964;23;20155;-45
2023/09/05 19:09:44;;;;;;;2.47;1.87;;;23.60;1.00;;;;;;6248387;22;20140;-44
2023/09/05 19:12:12;;;;;;;3.43;1.73;;;23.60;99.90;;;;;;6247220;23;20246;-49
2023/09/05 19:14:38;;;;;;;4.17;1.60;;;23.50;99.90;;;;;;6247909;22;20175;-48
2023/09/05 19:17:04;;;;;;;4.37;1.70;;;23.50;99.90;;;;;;6248165;23;20271;-48
2023/09/05 19:19:31;;;;;;;2.60;1.53;;;23.60;1.00;;;;;;6248095;23;20647;-44
2023/09/05 19:21:57;;;;;;;2.67;1.80;;;23.50;1.00;;;;;;6247888;22;20156;-45
2023/09/05 19:24:23;;;;;;;2.00;1.83;;;23.40;1.00;;;;;;6246481;23;20298;-44
2023/09/05 19:26:50;;;;;;;4.77;2.10;;;23.40;99.90;;;;;;6248170;22;20151;-43
2023/09/05 19:29:16;;;;;;;4.47;1.70;;;23.30;99.90;;;;;;6246310;23;20209;-49
2023/09/05 19:31:42;;;;;;;3.70;1.97;;;23.30;1.00;;;;;;6246629;23;20156;-45
2023/09/05 19:34:08;;;;;;;3.17;1.80;;;23.30;1.00;;;;;;6246303;23;20159;-44
2023/09/05 19:36:35;;;;;;;3.03;1.97;;;23.20;1.00;;;;;;6250000;23;20175;-44
2023/09/05 19:39:01;;;;;;;5.53;1.67;;;23.20;1.00;;;;;;6248869;23;20178;-48
2023/09/05 19:41:27;;;;;;;5.97;1.87;;;23.20;99.90;;;;;;6250873;22;20152;-48
2023/09/05 19:43:53;;;;;;;3.10;2.00;;;23.20;99.90;;;;;;6248241;23;20163;-49
2023/09/05 19:46:21;;;;;;;2.10;1.60;;;23.10;1.00;;;;;;6250092;23;20171;-49
2023/09/05 19:48:49;;;;;;;4.00;1.87;;;23.10;1.00;;;;;;6250676;22;20175;-45
2023/09/05 19:51:15;;;;;;;1.90;1.70;;;23.10;1.00;;;;;;6223374;23;20163;-44
2023/09/05 19:53:41;;;;;;;4.10;1.73;;;23.10;1.00;;;;;;6249972;22;20238;-49
2023/09/05 19:56:07;;;;;;;6.33;1.97;;;23.10;1.00;;;;;;6249829;23;20175;-47
2023/09/05 19:58:33;;;;;;;6.30;2.00;;;23.10;1.00;;;;;;6249230;23;20179;-43
2023/09/05 20:01:01;;;;;;;3.33;1.60;;;23.00;1.00;;;;;;6248240;23;20635;-43
2023/09/05 20:03:28;;;;;;;3.77;1.90;;;23.00;1.00;;;;;;6222722;23;20180;-49
2023/09/05 20:05:54;;;;;;;3.17;1.67;;;22.90;1.00;;;;;;6249382;22;20186;-49
2023/09/05 20:08:20;;;;;;;3.50;2.20;;;22.90;99.90;;;;;;6249568;22;20152;-48
2023/09/05 20:10:46;;;;;;;3.03;1.70;;;22.90;99.90;;;;;;6249738;22;20162;-48
2023/09/05 20:13:11;;;;;;;8.73;2.17;;;22.90;1.00;;;;;;6249608;23;20151;-47
2023/09/05 20:15:37;;;;;;;4.60;1.63;;;22.80;1.00;;;;;;6249520;23;20175;-48
2023/09/05 20:18:03;;;;;;;5.00;2.10;;;22.80;1.00;;;;;;6247441;23;20270;-49
2023/09/05 20:20:47;;;;;;;2.77;1.77;;;22.80;99.90;;;;;;6247126;23;20155;-44
2023/09/05 20:23:36;;;;;;;6.37;1.80;;;22.80;99.90;;;;;;6249783;22;20441;-43
2023/09/05 20:26:27;;;;;;;3.40;1.47;;;22.70;1.00;;;;;;6247291;23;20176;-45
2023/09/05 20:28:53;;;;;;;7.90;1.60;;;22.60;99.90;;;;;;6246675;23;20167;-48
2023/09/05 20:31:19;;;;;;;1.83;1.50;;;22.60;1.00;;;;;;6247603;23;20171;-50
2023/09/05 20:33:45;;;;;;;3.87;1.60;;;22.60;1.00;;;;;;6249876;23;20155;-43
2023/09/05 20:36:12;;;;;;;3.83;2.00;;;22.60;1.00;;;;;;6247379;23;20176;-48
2023/09/05 20:38:38;;;;;;;1.97;1.60;;;22.60;99.90;;;;;;6247359;23;20267;-49
2023/09/05 20:41:04;;;;;;;5.27;1.70;;;22.60;1.00;;;;;;6247860;23;20159;-48
2023/09/05 20:43:32;;;;;;;2.00;1.70;;;22.40;99.90;;;;;;6247442;23;20156;-49
2023/09/05 20:46:22;;;;;;;3.37;1.50;;;22.40;99.90;;;;;;6247391;23;20167;-45
2023/09/05 20:48:51;;;;;;;4.47;1.50;;;22.40;99.90;;;;;;6248609;23;20160;-44
2023/09/05 20:51:18;;;;;;;2.93;1.60;;;22.40;1.00;;;;;;6249140;22;20148;-48
2023/09/05 20:53:44;;;;;;;2.17;1.80;;;22.40;1.00;;;;;;6249107;22;20469;-48
2023/09/05 20:56:49;;;;;;;4.33;1.97;;;22.40;1.00;;;;;;6247253;23;20255;-43
2023/09/05 20:59:27;;;;;;;3.80;1.80;;;22.40;1.00;;;;;;6249358;22;20144;-44
2023/09/05 21:01:56;;;;;;;2.07;1.50;;;22.30;1.00;;;;;;6247468;23;20631;-45
2023/09/05 21:04:22;;;;;;;7.20;1.73;;;22.20;99.90;;;;;;6249436;22;20155;-48
2023/09/05 21:07:00;;;;;;;1.80;1.50;;;22.20;1.00;;;;;;6248788;22;20154;-44
2023/09/05 21:09:26;;;;;;;2.63;1.80;;;22.10;99.90;;;;;;6247225;23;20489;-50
2023/09/05 21:11:52;;;;;;;5.97;1.80;;;22.00;1.00;;;;;;6247472;23;20156;-49
2023/09/05 21:14:23;;;;;;;2.23;1.73;;;22.00;1.00;;;;;;6246996;23;20225;-43
2023/09/05 21:16:55;;;;;;;1.77;1.60;;;21.90;99.90;;;;;;6247055;23;20179;-43
2023/09/05 21:19:22;;;;;;;2.50;1.63;;;21.90;99.90;;;;;;6249315;22;20140;-47
2023/09/05 21:21:54;;;;;;;3.90;1.70;;;21.90;99.90;;;;;;6246833;23;20533;-44
2023/09/05 21:24:33;;;;;;;4.83;1.60;;;21.80;1.00;;;;;;6246544;23;20190;-44
2023/09/05 21:27:03;;;;;;;3.13;1.70;;;21.80;1.00;;;;;;6247241;23;20163;-47
2023/09/05 21:29:30;;;;;;;3.57;1.67;;;21.70;1.00;;;;;;6248590;22;20183;-49
2023/09/05 21:31:57;;;;;;;5.60;1.70;;;21.60;1.00;;;;;;6247147;23;20194;-48
2023/09/05 21:34:23;;;;;;;2.23;1.50;;;21.60;55.20;;;;;;6249259;22;20209;-47
2023/09/05 21:36:48;;;;;;;4.47;1.80;;;21.60;99.90;;;;;;6246995;23;20183;-47
2023/09/05 21:39:14;;;;;;;4.60;1.90;;;21.50;99.90;;;;;;6247044;23;20246;-49
2023/09/05 21:41:50;;;;;;;2.53;2.00;;;21.40;99.90;;;;;;6247076;23;20162;-43
2023/09/05 21:44:22;;;;;;;2.30;1.60;;;21.40;99.90;;;;;;6245073;23;20242;-45
2023/09/05 21:47:13;;;;;;;5.97;1.90;;;21.30;99.90;;;;;;6248959;23;20212;-45
2023/09/05 21:49:40;;;;;;;4.07;2.00;;;21.30;1.00;;;;;;6226246;23;20229;-45
2023/09/05 21:52:06;;;;;;;5.27;1.70;;;21.20;1.00;;;;;;6246801;23;20585;-48
2023/09/05 21:54:44;;;;;;;8.90;2.30;;;21.20;1.00;;;;;;6248319;22;20209;-47
2023/09/05 21:57:11;;;;;;;3.23;1.90;;;21.10;1.00;;;;;;6248160;22;20175;-47
2023/09/05 22:03:10;;;;;;;3.37;1.60;;;21.00;1.00;;;;;;6222472;23;20524;-48
2023/09/05 22:05:36;;;;;;;5.00;1.60;;;21.00;1.00;;;;;;6248025;23;20199;-47
2023/09/05 22:08:06;;;;;;;4.70;1.57;;;20.90;1.00;;;;;;6248514;23;20155;-49
2023/09/05 22:11:08;;;;;;;3.27;1.87;;;20.90;1.00;;;;;;6246740;23;20503;-44
2023/09/05 22:16:56;;;;;;;2.97;1.97;;;20.80;1.00;;;;;;6247844;23;20225;-48
2023/09/05 22:19:42;;;;;;;3.27;1.80;;;20.70;1.00;;;;;;6221330;23;20537;-44
2023/09/05 22:22:18;;;;;;;2.70;1.90;;;20.60;1.00;;;;;;6248535;22;20489;-43
2023/09/05 22:24:56;;;;;;;2.57;1.70;;;20.60;1.00;;;;;;6247789;22;20262;-44
2023/09/05 22:28:08;;;;;;;3.27;1.93;;;20.60;1.00;;;;;;6247906;22;20501;-44
2023/09/05 22:30:34;;;;;;;2.67;1.93;;;20.50;1.00;;;;;;6245590;23;20265;-48
2023/09/05 22:33:01;;;;;;;4.87;1.67;;;20.50;1.00;;;;;;6248097;22;20147;-44
2023/09/05 22:35:28;;;;;;;4.53;1.97;;;20.40;1.00;;;;;;6246303;23;20184;-48
2023/09/05 22:37:54;;;;;;;3.13;1.90;;;20.40;1.00;;;;;;6246237;23;20187;-48
2023/09/05 22:40:29;;;;;;;4.53;2.40;;;20.30;1.00;;;;;;6247917;22;20651;-44
2023/09/05 22:42:55;;;;;;;6.60;2.10;;;20.30;1.00;;;;;;6247782;22;20533;-49
2023/09/05 22:46:14;;;;;;;2.07;1.70;;;20.30;1.00;;;;;;6246063;23;20175;-46
2023/09/05 22:48:39;;;;;;;2.70;1.80;;;20.20;1.00;;;;;;6247901;22;20156;-48
2023/09/05 22:51:06;;;;;;;5.60;1.93;;;20.10;1.00;;;;;;6247622;23;20661;-48
2023/09/05 22:53:32;;;;;;;3.20;1.73;;;20.10;1.00;;;;;;6247799;22;20155;-48
2023/09/05 22:56:32;;;;;;;2.50;1.70;;;20.10;1.00;;;;;;6247966;22;20179;-47
2023/09/05 22:58:58;;;;;;;7.73;2.00;;;20.00;1.00;;;;;;6202672;23;20168;-47
2023/09/05 23:01:25;;;;;;;5.97;2.03;;;19.90;1.00;;;;;;6247808;22;20147;-44
2023/09/05 23:03:51;;;;;;;3.90;1.80;;;19.90;1.00;;;;;;6245814;23;20183;-48
2023/09/05 23:09:40;;;;;;;4.47;2.37;;;19.70;1.00;;;;;;6247763;22;20166;-48
2023/09/05 23:12:30;;;;;;;2.33;2.03;;;19.60;1.00;;;;;;6246265;23;20167;-41
2023/09/05 23:14:55;;;;;;;2.13;1.80;;;19.60;1.00;;;;;;6247975;22;20172;-47
2023/09/05 23:20:46;;;;;;;1.97;1.67;;;19.40;1.00;;;;;;6248008;23;20154;-47
2023/09/05 23:23:12;;;;;;;3.57;1.90;;;19.40;1.00;;;;;;6246987;23;20152;-48
2023/09/05 23:25:45;;;;;;;4.70;2.00;;;19.30;1.00;;;;;;6247819;23;20243;-47
2023/09/05 23:28:39;;;;;;;6.07;2.40;;;19.20;1.00;;;;;;6245728;23;20163;-44
2023/09/05 23:31:05;;;;;;;3.20;1.50;;;19.10;1.00;;;;;;6241544;23;20202;-48
2023/09/05 23:33:49;;;;;;;4.53;2.47;;;19.10;1.00;;;;;;6247722;22;20167;-42
